Time;durP1;ratioP1;P1;durP2;ratioP2;P2;SDS_P1;SDS_P2;PMS_P1;PMS_P2;Temp;Humidity;BMP_temperature;BMP_pressure;BME280_temperature;BME280_humidity;BME280_pressure;Samples;Min_cycle;Max_cycle;Signal;HPM_P1;HPM_P2
2023/04/10 00:03:11;;;;;;;2.35;1.50;;;;;;;19.59;34.18;101954.75;16119835;19;130558;-49
2023/04/10 00:08:33;;;;;;;4.07;1.70;;;;;;;19.56;34.32;101955.22;16119570;19;130115;-48
2023/04/10 00:13:55;;;;;;;2.35;1.58;;;;;;;19.54;34.32;101946.28;16119731;19;129404;-51
2023/04/10 00:19:17;;;;;;;3.20;1.40;;;;;;;19.51;34.54;101941.19;16119547;19;130675;-51
2023/04/10 00:24:39;;;;;;;1.65;1.30;;;;;;;19.49;34.57;101935.00;16116582;19;130101;-49
2023/04/10 00:30:01;;;;;;;2.92;1.50;;;;;;;19.48;34.52;101936.06;16119179;19;130805;-47
2023/04/10 00:35:23;;;;;;;1.60;1.50;;;;;;;19.45;34.36;101942.06;16122848;19;129821;-51
2023/04/10 00:40:45;;;;;;;2.00;1.50;;;;;;;19.42;34.31;101932.28;16117900;19;129408;-50
2023/04/10 00:46:07;;;;;;;3.10;1.30;;;;;;;19.40;34.28;101926.09;16118000;19;130626;-47
2023/04/10 00:51:30;;;;;;;1.35;1.25;;;;;;;19.39;34.45;101921.63;16119749;19;129688;-52
2023/04/10 00:56:52;;;;;;;2.00;1.30;;;;;;;19.36;34.32;101920.16;16118196;19;129159;-49
2023/04/10 01:02:14;;;;;;;1.58;1.40;;;;;;;19.35;34.41;101915.69;16117495;19;129495;-47
2023/04/10 01:07:42;;;;;;;1.58;1.13;;;;;;;19.33;34.49;101915.06;16113027;19;129476;-49
2023/04/10 01:13:07;;;;;;;1.33;1.20;;;;;;;19.31;34.63;101914.47;16114870;19;133529;-49
2023/04/10 01:18:36;;;;;;;1.30;1.20;;;;;;;19.30;34.18;101896.13;16117592;19;131961;-51
2023/04/10 01:24:23;;;;;;;1.88;1.10;;;;;;;19.28;34.46;101903.81;16116052;19;130563;-50
2023/04/10 01:29:51;;;;;;;1.63;1.38;;;;;;;19.25;34.69;101898.72;16110891;19;129801;-50
2023/04/10 01:35:15;;;;;;;1.63;1.13;;;;;;;19.24;34.31;101893.41;16116066;19;129906;-52
2023/04/10 01:40:41;;;;;;;1.40;1.30;;;;;;;19.22;34.41;101876.97;16114083;19;130816;-51
2023/04/10 01:46:04;;;;;;;1.40;1.30;;;;;;;19.22;34.45;101865.88;16114298;19;134294;-49
2023/04/10 01:51:26;;;;;;;2.78;1.20;;;;;;;19.21;34.28;101858.63;16115658;19;129552;-45
2023/04/10 01:56:48;;;;;;;1.20;1.10;;;;;;;19.20;34.47;101856.91;16109027;19;131803;-50
2023/04/10 02:02:10;;;;;;;1.77;1.52;;;;;;;19.18;34.23;101848.81;16112723;19;130233;-46
2023/04/10 02:07:41;;;;;;;2.28;1.20;;;;;;;19.17;34.62;101851.81;16112364;19;129653;-46
2023/04/10 02:13:06;;;;;;;1.85;1.35;;;;;;;19.14;34.56;101836.47;16114787;19;134249;-49
2023/04/10 02:18:30;;;;;;;1.00;0.90;;;;;;;19.14;34.71;101830.91;16111104;19;129583;-48
2023/04/10 02:23:52;;;;;;;1.67;1.10;;;;;;;19.12;34.50;101833.09;16110383;19;130436;-48
2023/04/10 02:29:15;;;;;;;1.38;1.20;;;;;;;19.12;34.68;101826.69;16109705;19;130334;-48
2023/04/10 02:34:37;;;;;;;1.45;1.13;;;;;;;19.11;34.18;101824.97;16109482;19;130284;-48
2023/04/10 02:39:59;;;;;;;1.10;1.00;;;;;;;19.08;34.42;101829.91;16122334;19;130555;-47
2023/04/10 02:45:21;;;;;;;1.30;1.20;;;;;;;19.06;34.57;101832.06;16123334;19;131590;-48
2023/04/10 02:50:45;;;;;;;1.42;1.00;;;;;;;19.05;34.71;101826.72;16126515;19;129616;-46
2023/04/10 02:56:07;;;;;;;1.08;0.88;;;;;;;19.04;34.58;101825.03;16126595;19;131571;-46
2023/04/10 03:01:29;;;;;;;2.05;1.20;;;;;;;19.03;34.70;101834.44;16124787;19;130094;-48
2023/04/10 03:06:51;;;;;;;1.20;1.10;;;;;;;19.02;34.30;101833.59;16122461;19;129362;-48
2023/04/10 03:12:14;;;;;;;1.20;1.10;;;;;;;18.99;34.79;101822.94;16121937;19;130235;-46
2023/04/10 03:17:36;;;;;;;0.73;0.73;;;;;;;18.98;34.37;101824.03;16121298;19;131635;-46
2023/04/10 03:22:59;;;;;;;1.20;1.10;;;;;;;18.98;34.50;101814.88;16122645;19;131045;-49
2023/04/10 03:28:21;;;;;;;1.30;1.13;;;;;;;18.94;34.65;101811.72;16123918;19;129869;-48
2023/04/10 03:33:43;;;;;;;1.02;0.93;;;;;;;18.94;34.41;101817.25;16118553;19;130101;-47
2023/04/10 03:39:05;;;;;;;1.30;1.10;;;;;;;18.92;34.64;101800.00;16122943;19;132229;-48
2023/04/10 03:44:27;;;;;;;1.08;0.98;;;;;;;18.90;34.40;101802.13;16121656;19;130428;-45
2023/04/10 03:49:49;;;;;;;1.65;1.10;;;;;;;18.88;34.56;101794.06;16119649;19;129767;-47
2023/04/10 03:55:11;;;;;;;0.85;0.85;;;;;;;18.88;34.58;101795.97;16118630;19;130607;-47
2023/04/10 04:00:33;;;;;;;0.93;0.82;;;;;;;18.85;34.88;101771.47;16121058;19;129769;-47
2023/04/10 04:05:55;;;;;;;1.20;1.10;;;;;;;18.86;34.56;101770.38;16119248;19;131854;-47
2023/04/10 04:11:17;;;;;;;0.95;0.93;;;;;;;18.84;34.45;101772.53;16119394;19;130545;-49
2023/04/10 04:16:38;;;;;;;0.80;0.80;;;;;;;18.82;34.45;101758.06;16122656;19;129910;-51
2023/04/10 04:22:00;;;;;;;1.25;0.82;;;;;;;18.82;34.93;101760.84;16121631;19;130472;-48
2023/04/10 04:27:22;;;;;;;0.77;0.77;;;;;;;18.80;34.79;101749.13;16115749;19;129440;-48
2023/04/10 04:32:44;;;;;;;0.80;0.80;;;;;;;18.80;34.87;101749.13;16116053;19;129260;-50
2023/04/10 04:38:06;;;;;;;1.10;1.00;;;;;;;18.77;34.77;101748.50;16117919;19;131249;-50
2023/04/10 04:43:28;;;;;;;0.90;0.80;;;;;;;18.77;34.63;101742.09;16120022;19;130643;-49
2023/04/10 04:48:50;;;;;;;1.15;0.80;;;;;;;18.76;34.79;101748.75;16116865;19;129574;-48
2023/04/10 04:54:12;;;;;;;0.82;0.80;;;;;;;18.72;34.84;101740.00;16119087;19;129625;-47
2023/04/10 04:59:34;;;;;;;1.00;0.90;;;;;;;18.72;34.98;101734.47;16118840;19;131289;-47
2023/04/10 05:04:56;;;;;;;0.73;0.73;;;;;;;18.75;34.56;101730.41;16114369;19;130767;-51
2023/04/10 05:10:19;;;;;;;0.70;0.60;;;;;;;18.88;34.44;101723.88;16115401;19;134542;-51
2023/04/10 05:15:41;;;;;;;1.20;0.90;;;;;;;19.14;34.14;101713.59;16118337;19;130781;-48
2023/04/10 05:21:04;;;;;;;0.55;0.55;;;;;;;19.38;33.96;101709.06;16115470;19;129464;-49
2023/04/10 05:26:26;;;;;;;0.75;0.70;;;;;;;19.53;33.93;101722.53;16115364;19;130334;-50
2023/04/10 05:31:48;;;;;;;1.85;0.70;;;;;;;19.58;33.83;101725.44;16113980;19;130709;-50
2023/04/10 05:37:11;;;;;;;1.10;0.80;;;;;;;19.57;33.94;101723.75;16114051;19;130044;-50
2023/04/10 05:42:33;;;;;;;1.50;0.88;;;;;;;19.56;33.85;101729.53;16112513;19;131185;-48
2023/04/10 05:47:55;;;;;;;1.20;0.70;;;;;;;19.51;33.66;101733.03;16113111;19;129428;-48
2023/04/10 05:53:19;;;;;;;0.88;0.75;;;;;;;19.47;34.00;101729.00;16115514;19;129757;-45
2023/04/10 05:58:41;;;;;;;0.63;0.63;;;;;;;19.42;34.16;101732.50;16113354;19;131031;-47
2023/04/10 06:04:03;;;;;;;0.70;0.60;;;;;;;19.36;33.91;101737.03;16113605;19;131366;-53
2023/04/10 06:09:26;;;;;;;0.60;0.60;;;;;;;19.31;34.32;101724.94;16112913;19;129809;-51
2023/04/10 06:14:48;;;;;;;0.80;0.80;;;;;;;19.27;34.34;101723.69;16117964;19;130164;-49
2023/04/10 06:20:10;;;;;;;1.20;0.70;;;;;;;19.22;34.42;101716.06;16130040;19;130759;-49
2023/04/10 06:25:32;;;;;;;0.65;0.65;;;;;;;19.18;34.15;101707.34;16125423;19;131427;-47
2023/04/10 06:30:54;;;;;;;0.68;0.68;;;;;;;19.16;34.32;101705.88;16129947;19;129264;-48
2023/04/10 06:36:16;;;;;;;0.80;0.80;;;;;;;19.11;34.18;101686.31;16126145;19;130905;-48
2023/04/10 06:41:38;;;;;;;1.02;0.75;;;;;;;19.06;34.60;101679.53;16127949;19;130661;-46
2023/04/10 06:47:00;;;;;;;0.80;0.75;;;;;;;19.05;34.39;101682.53;16125987;19;131099;-50
2023/04/10 06:52:22;;;;;;;0.80;0.80;;;;;;;19.03;34.59;101674.44;16126116;19;129351;-46
2023/04/10 06:57:44;;;;;;;0.85;0.80;;;;;;;19.07;34.24;101664.59;16123852;19;130899;-48
2023/04/10 07:03:06;;;;;;;2.85;2.55;;;;;;;19.06;33.27;101660.13;16125537;19;129829;-48
2023/04/10 07:08:28;;;;;;;5.40;3.92;;;;;;;18.96;31.70;101656.19;16125358;19;130634;-47
2023/04/10 07:13:52;;;;;;;6.28;4.30;;;;;;;18.86;31.61;101651.16;16127344;19;129540;-46
2023/04/10 07:19:14;;;;;;;6.05;4.10;;;;;;;18.84;31.40;101640.31;16128083;19;130460;-48
2023/04/10 07:24:36;;;;;;;4.50;3.67;;;;;;;18.85;31.34;101616.22;16124725;19;130156;-47
2023/04/10 07:29:58;;;;;;;5.32;3.42;;;;;;;18.95;30.71;101607.34;16122631;19;130171;-51
2023/04/10 07:35:20;;;;;;;10.15;3.17;;;;;;;19.16;30.50;101600.47;16122563;19;130112;-52
2023/04/10 07:40:42;;;;;;;6.85;3.05;;;;;;;19.45;30.09;101589.66;16124681;19;129778;-46
2023/04/10 07:46:05;;;;;;;6.63;2.50;;;;;;;19.77;29.87;101579.13;16124260;19;130745;-51
2023/04/10 07:51:28;;;;;;;6.60;2.55;;;;;;;20.09;29.64;101561.31;16124270;19;129603;-48
2023/04/10 07:56:53;;;;;;;5.22;2.45;;;;;;;20.40;29.64;101564.84;16122088;19;131937;-48
2023/04/10 08:02:15;;;;;;;3.00;2.60;;;;;;;20.65;29.86;101566.50;16117820;19;130381;-46
2023/04/10 08:07:37;;;;;;;4.85;2.10;;;;;;;20.80;29.44;101575.19;16117378;19;130867;-48
2023/04/10 08:13:01;;;;;;;6.65;2.10;;;;;;;20.85;29.51;101574.47;16121617;19;129434;-48
2023/04/10 08:18:23;;;;;;;5.60;2.22;;;;;;;20.82;30.24;101577.72;16121991;19;130598;-46
2023/04/10 08:23:45;;;;;;;4.93;2.10;;;;;;;20.72;30.22;101562.50;16119949;19;129800;-49
2023/04/10 08:29:07;;;;;;;4.72;2.15;;;;;;;20.64;30.24;101553.69;16114330;19;129762;-48
2023/04/10 08:34:29;;;;;;;6.32;1.70;;;;;;;20.53;30.76;101545.13;16119998;19;130301;-48
2023/04/10 08:39:52;;;;;;;3.78;1.90;;;;;;;20.45;31.12;101553.81;16117144;19;129211;-46
2023/04/10 08:45:14;;;;;;;3.58;1.50;;;;;;;20.35;31.17;101539.69;16119791;19;129726;-49
2023/04/10 08:50:40;;;;;;;7.88;2.03;;;;;;;20.26;31.28;101545.63;16120253;19;131516;-48
2023/04/10 08:56:04;;;;;;;3.67;1.58;;;;;;;20.17;31.34;101544.31;16123508;19;131235;-52
2023/04/10 09:01:26;;;;;;;4.82;1.52;;;;;;;20.08;31.62;101529.94;16114907;19;131086;-51
2023/04/10 09:06:48;;;;;;;6.75;1.90;;;;;;;20.02;32.17;101538.38;16114353;19;130784;-46
2023/04/10 09:12:15;;;;;;;6.07;2.30;;;;;;;19.95;32.30;101525.41;16117109;19;129548;-50
2023/04/10 09:17:37;;;;;;;8.02;1.80;;;;;;;19.91;32.66;101513.13;16117032;19;129472;-51
2023/04/10 09:23:00;;;;;;;9.52;1.65;;;;;;;19.88;33.01;101504.44;16121076;19;130631;-47
2023/04/10 09:28:22;;;;;;;8.55;1.60;;;;;;;19.83;33.19;101508.75;16114457;19;129799;-47
2023/04/10 09:33:45;;;;;;;12.38;2.00;;;;;;;19.81;33.37;101501.78;16108306;19;129654;-48
2023/04/10 09:39:09;;;;;;;7.00;1.70;;;;;;;19.80;33.22;101497.31;16111967;19;129922;-50
2023/04/10 09:44:33;;;;;;;10.75;1.90;;;;;;;19.80;33.28;101486.19;16115297;19;129508;-47
2023/04/10 09:49:59;;;;;;;8.63;1.88;;;;;;;19.78;33.39;101480.03;16107464;19;130324;-47
2023/04/10 09:55:21;;;;;;;11.40;2.00;;;;;;;19.76;33.75;101480.25;16113095;19;129512;-48
2023/04/10 10:00:48;;;;;;;12.75;2.20;;;;;;;19.75;33.42;101473.03;16113345;19;133649;-46
2023/04/10 10:06:10;;;;;;;9.30;1.60;;;;;;;19.75;33.49;101469.41;16110349;19;130643;-48
2023/04/10 10:11:34;;;;;;;3.42;1.48;;;;;;;19.75;33.91;101473.03;16113247;19;129722;-47
2023/04/10 10:17:00;;;;;;;8.90;1.40;;;;;;;19.76;33.69;101454.44;16114172;19;129572;-46
2023/04/10 10:22:25;;;;;;;7.40;1.73;;;;;;;19.77;33.64;101429.19;16114815;19;130583;-47
2023/04/10 10:27:48;;;;;;;8.55;1.80;;;;;;;19.77;33.70;101422.81;16111689;19;130635;-48
2023/04/10 10:33:12;;;;;;;7.30;1.50;;;;;;;19.78;33.67;101413.41;16113575;19;130595;-48
2023/04/10 10:38:40;;;;;;;5.30;1.65;;;;;;;19.78;33.68;101408.69;16111208;19;130659;-47
2023/04/10 10:44:12;;;;;;;3.63;1.52;;;;;;;19.78;33.59;101402.31;16110146;19;130325;-45
2023/04/10 10:49:59;;;;;;;9.90;1.60;;;;;;;19.78;33.66;101397.56;16114536;19;129741;-46
2023/04/10 10:55:21;;;;;;;9.70;1.63;;;;;;;19.77;33.65;101375.63;16107586;19;129647;-46
2023/04/10 11:00:49;;;;;;;5.03;1.40;;;;;;;19.77;33.65;101361.75;16110582;19;129716;-50
2023/04/10 11:06:15;;;;;;;6.85;1.42;;;;;;;19.75;33.94;101358.34;16123854;19;129763;-46
2023/04/10 11:11:57;;;;;;;6.13;1.52;;;;;;;19.76;34.25;101344.22;16123573;19;129577;-47
2023/04/10 11:17:47;;;;;;;5.57;1.40;;;;;;;19.75;34.50;101341.69;16122610;19;130481;-46
2023/04/10 11:23:11;;;;;;;3.95;1.10;;;;;;;19.73;34.29;101333.63;16122161;19;129807;-47
2023/04/10 11:28:38;;;;;;;8.15;1.70;;;;;;;19.67;34.56;101318.78;16120101;19;130950;-47
2023/04/10 11:34:05;;;;;;;9.38;1.92;;;;;;;19.65;34.46;101309.88;16120481;19;131196;-46
2023/04/10 11:39:27;;;;;;;7.95;1.77;;;;;;;19.61;34.66;101296.72;16120676;19;129541;-46
2023/04/10 11:44:50;;;;;;;15.13;2.03;;;;;;;19.57;34.41;101285.25;16119775;19;129982;-46
2023/04/10 11:50:13;;;;;;;13.35;2.13;;;;;;;19.55;34.52;101286.59;16121488;19;131267;-46
2023/04/10 11:55:38;;;;;;;19.23;1.95;;;;;;;19.54;34.68;101277.44;16124048;19;130239;-47
2023/04/10 12:01:02;;;;;;;6.85;1.88;;;;;;;19.53;34.75;101259.09;16123181;19;129635;-48
2023/04/10 12:06:26;;;;;;;17.75;2.78;;;;;;;19.55;35.03;101253.28;16122262;19;130013;-52
2023/04/10 12:12:02;;;;;;;24.00;3.03;;;;;;;19.56;34.74;101247.50;16114732;19;130406;-51
2023/04/10 12:17:24;;;;;;;29.00;2.97;;;;;;;19.56;34.83;101243.88;16122387;19;129543;-53
2023/04/10 12:22:46;;;;;;;24.13;2.88;;;;;;;19.54;34.90;101238.56;16120696;19;129564;-51
2023/04/10 12:28:16;;;;;;;29.60;3.30;;;;;;;19.53;35.10;101234.13;16117750;19;130843;-52
2023/04/10 12:33:38;;;;;;;17.20;2.70;;;;;;;19.48;35.11;101236.75;16111084;19;132305;-51
2023/04/10 12:39:02;;;;;;;18.70;2.75;;;;;;;19.44;34.91;101218.94;16120220;19;129936;-51
2023/04/10 12:44:24;;;;;;;21.50;2.58;;;;;;;19.40;34.73;101218.56;16112726;19;130583;-54
2023/04/10 12:50:05;;;;;;;18.13;2.38;;;;;;;19.38;35.23;101204.94;16117612;19;130795;-51
2023/04/10 12:55:30;;;;;;;10.88;1.80;;;;;;;19.34;34.89;101200.97;16114625;19;130161;-48
2023/04/10 13:00:54;;;;;;;11.90;2.00;;;;;;;19.30;34.84;101185.91;16115179;19;130698;-51
2023/04/10 13:06:16;;;;;;;5.60;1.77;;;;;;;19.32;35.27;101177.34;16113192;19;129546;-52
2023/04/10 13:11:39;;;;;;;12.43;2.78;;;;;;;19.30;35.20;101169.28;16117394;19;129985;-51
2023/04/10 13:17:01;;;;;;;12.20;1.63;;;;;;;19.31;35.12;101151.53;16119628;19;130010;-50
2023/04/10 13:22:23;;;;;;;8.82;1.95;;;;;;;19.32;35.27;101138.50;16119285;19;130400;-47
2023/04/10 13:27:45;;;;;;;8.25;2.00;;;;;;;19.34;35.33;101120.50;16113731;19;131333;-47
2023/04/10 13:33:08;;;;;;;8.02;1.77;;;;;;;19.37;35.14;101114.47;16111475;19;129605;-49
2023/04/10 13:38:30;;;;;;;13.25;1.63;;;;;;;19.38;35.48;101093.97;16110420;19;130961;-48
2023/04/10 13:43:52;;;;;;;10.95;1.83;;;;;;;19.42;35.45;101094.31;16107989;19;129292;-49
2023/04/10 13:49:16;;;;;;;4.25;1.35;;;;;;;19.45;35.62;101079.09;16106832;19;129130;-49
2023/04/10 13:54:38;;;;;;;13.85;1.67;;;;;;;19.47;35.62;101090.78;16111867;19;131662;-53
2023/04/10 14:00:00;;;;;;;12.40;2.20;;;;;;;19.46;35.77;101087.19;16112639;19;129655;-52
2023/04/10 14:05:22;;;;;;;12.40;1.48;;;;;;;19.48;35.67;101082.25;16114623;19;131235;-51
2023/04/10 14:10:49;;;;;;;8.35;1.67;;;;;;;19.48;35.69;101070.28;16113588;19;129716;-47
2023/04/10 14:16:11;;;;;;;6.18;1.30;;;;;;;19.49;35.47;101066.41;16108085;19;131588;-49
2023/04/10 14:21:33;;;;;;;9.90;1.60;;;;;;;19.51;35.64;101053.13;16112625;19;132490;-48
2023/04/10 14:26:59;;;;;;;5.97;1.38;;;;;;;19.50;35.74;101030.13;16112112;19;131209;-51
2023/04/10 14:32:21;;;;;;;8.80;1.42;;;;;;;19.57;35.82;101018.00;16111341;19;130875;-49
2023/04/10 14:37:43;;;;;;;13.32;1.80;;;;;;;19.70;35.97;101023.22;16123022;19;130797;-50
2023/04/10 14:43:06;;;;;;;7.50;1.30;;;;;;;19.94;35.56;101023.88;16128262;19;129856;-50
2023/04/10 14:48:28;;;;;;;10.02;1.20;;;;;;;20.24;35.01;101011.63;16126190;19;129687;-48
2023/04/10 14:53:50;;;;;;;12.18;1.33;;;;;;;20.50;35.00;101002.78;16118758;19;131287;-51
2023/04/10 14:59:13;;;;;;;4.68;1.35;;;;;;;20.66;34.50;101013.00;16118349;19;130472;-49
2023/04/10 15:04:35;;;;;;;10.80;1.55;;;;;;;20.73;34.90;101007.25;16119653;19;130273;-47
2023/04/10 15:09:57;;;;;;;6.40;1.27;;;;;;;20.69;34.45;101001.38;16123716;19;130481;-46
2023/04/10 15:15:19;;;;;;;10.55;1.15;;;;;;;20.65;34.40;101004.94;16122690;19;130243;-51
2023/04/10 15:20:41;;;;;;;9.50;1.08;;;;;;;20.59;34.50;101006.81;16121393;19;130596;-49
2023/04/10 15:26:04;;;;;;;12.27;1.15;;;;;;;20.52;35.13;101022.81;16124795;19;129657;-47
2023/04/10 15:31:26;;;;;;;7.50;1.35;;;;;;;20.43;34.85;101019.66;16127216;19;129999;-50
2023/04/10 15:36:48;;;;;;;6.68;1.30;;;;;;;20.35;35.02;101025.66;16122935;19;131255;-47
2023/04/10 15:42:10;;;;;;;8.57;1.15;;;;;;;20.29;35.35;101031.16;16124009;19;130112;-46
2023/04/10 15:47:32;;;;;;;9.75;1.10;;;;;;;20.22;35.61;101022.13;16118543;19;130452;-45
2023/04/10 15:52:54;;;;;;;9.43;1.55;;;;;;;20.15;35.23;101007.59;16122141;19;129511;-51
2023/04/10 15:58:16;;;;;;;4.53;1.02;;;;;;;20.12;35.59;100999.75;16120037;19;130760;-51
2023/04/10 16:03:38;;;;;;;5.28;1.30;;;;;;;20.05;35.56;100996.34;16110974;19;135229;-48
2023/04/10 16:09:00;;;;;;;9.68;1.42;;;;;;;19.97;35.65;100990.06;16114599;19;131944;-45
2023/04/10 16:14:23;;;;;;;10.20;2.17;;;;;;;20.04;36.33;100986.31;16120142;19;133745;-51
2023/04/10 16:19:45;;;;;;;15.30;2.83;;;;;;;20.15;36.24;101002.03;16117812;19;130136;-47
2023/04/10 16:25:07;;;;;;;19.65;3.95;;;;;;;20.27;36.62;101011.13;16122541;19;129629;-45
2023/04/10 16:30:30;;;;;;;18.23;7.38;;;;;;;20.37;36.03;101009.56;16121537;19;129328;-48
2023/04/10 16:35:52;;;;;;;17.33;7.05;;;;;;;20.43;36.17;101011.34;16117326;19;129759;-47
2023/04/10 16:41:19;;;;;;;21.35;7.05;;;;;;;20.57;35.93;101017.34;16118332;19;130812;-47
2023/04/10 16:46:41;;;;;;;13.52;5.35;;;;;;;20.62;35.58;101024.91;16120154;19;131968;-46
2023/04/10 16:52:03;;;;;;;14.23;5.00;;;;;;;20.60;35.72;101020.44;16114905;19;129709;-49
2023/04/10 16:57:25;;;;;;;15.20;4.75;;;;;;;20.54;36.03;101021.50;16119289;19;129456;-46
2023/04/10 17:02:48;;;;;;;8.75;3.60;;;;;;;20.47;35.63;101026.38;16117914;19;129921;-49
2023/04/10 17:08:09;;;;;;;11.00;4.00;;;;;;;20.38;35.78;101037.09;16112591;19;129553;-47
2023/04/10 17:13:32;;;;;;;9.07;2.92;;;;;;;20.32;36.05;101024.22;16115121;19;129674;-46
2023/04/10 17:18:55;;;;;;;8.75;3.13;;;;;;;20.23;35.92;101015.50;16113511;19;132256;-46
2023/04/10 17:24:17;;;;;;;10.55;2.42;;;;;;;20.15;36.22;101010.38;16119541;19;131644;-48
2023/04/10 17:29:40;;;;;;;6.88;2.30;;;;;;;20.09;35.85;101001.13;16121361;19;129901;-47
2023/04/10 17:35:01;;;;;;;6.00;2.33;;;;;;;20.02;36.05;101007.94;16113912;19;129235;-48
2023/04/10 17:40:23;;;;;;;8.63;2.67;;;;;;;20.01;36.59;100989.59;16111164;19;129533;-48
2023/04/10 17:45:45;;;;;;;7.03;2.10;;;;;;;20.07;36.39;100958.03;16107975;19;131493;-46
2023/04/10 17:51:07;;;;;;;12.50;3.47;;;;;;;20.19;36.20;100953.19;16116266;19;131087;-47
2023/04/10 17:56:30;;;;;;;15.65;2.65;;;;;;;20.31;36.21;100922.53;16112881;19;131292;-48
2023/04/10 18:01:52;;;;;;;20.17;2.90;;;;;;;20.42;36.42;100942.97;16112917;19;130625;-47
2023/04/10 18:07:14;;;;;;;8.70;2.67;;;;;;;20.51;36.42;100927.50;16113515;19;129576;-48
2023/04/10 18:12:36;;;;;;;10.77;3.33;;;;;;;20.57;36.66;100907.00;16112734;19;130771;-48
2023/04/10 18:17:58;;;;;;;10.52;2.67;;;;;;;20.64;36.24;100917.91;16112622;19;131047;-49
2023/04/10 18:23:22;;;;;;;8.50;2.65;;;;;;;20.69;36.68;100943.00;16114052;19;129482;-47
2023/04/10 18:28:45;;;;;;;8.27;2.58;;;;;;;20.72;36.38;100933.31;16113170;19;130733;-48
2023/04/10 18:34:06;;;;;;;8.35;2.65;;;;;;;20.73;36.83;100935.84;16110318;19;129659;-50
2023/04/10 18:39:29;;;;;;;8.38;2.75;;;;;;;20.79;36.83;100906.19;16109490;19;129305;-48
2023/04/10 18:44:51;;;;;;;7.65;2.35;;;;;;;21.02;36.71;100877.19;16108521;19;129869;-49
2023/04/10 18:50:13;;;;;;;5.13;1.70;;;;;;;21.29;35.93;100926.41;16112682;19;130873;-50
2023/04/10 18:55:35;;;;;;;2.60;1.73;;;;;;;21.49;35.65;100938.84;16111355;19;130552;-51
2023/04/10 19:00:57;;;;;;;5.97;2.00;;;;;;;21.63;35.70;100942.03;16107066;19;130787;-46
2023/04/10 19:06:22;;;;;;;5.43;1.40;;;;;;;21.66;35.64;100933.97;16111006;19;129892;-47
2023/04/10 19:11:44;;;;;;;4.28;1.40;;;;;;;21.67;35.79;100945.94;16108192;19;130333;-46
2023/04/10 19:17:07;;;;;;;5.30;1.50;;;;;;;21.65;35.59;100901.66;16110258;19;130792;-52
2023/04/10 19:22:31;;;;;;;9.85;1.73;;;;;;;21.62;35.67;100924.47;16110609;19;129761;-46
2023/04/10 19:27:53;;;;;;;12.10;1.88;;;;;;;21.54;35.98;100915.78;16127630;19;129564;-45
2023/04/10 19:33:16;;;;;;;7.93;1.30;;;;;;;21.44;35.74;100919.28;16127053;19;129382;-50
2023/04/10 19:38:39;;;;;;;12.82;1.65;;;;;;;21.36;36.04;100926.19;16125844;19;129969;-49
2023/04/10 19:44:01;;;;;;;13.90;2.60;;;;;;;21.26;36.65;100926.09;16124099;19;129530;-48
2023/04/10 19:49:23;;;;;;;14.98;1.50;;;;;;;21.18;36.60;100931.03;16123388;19;129938;-51
2023/04/10 19:54:46;;;;;;;11.52;1.70;;;;;;;21.08;37.04;100936.50;16123965;19;132286;-49
2023/04/10 20:00:09;;;;;;;19.35;1.48;;;;;;;21.02;37.42;100929.22;16122032;19;130136;-46
2023/04/10 20:05:31;;;;;;;30.77;1.92;;;;;;;20.96;37.58;100913.56;16119398;19;130171;-45
2023/04/10 20:10:53;;;;;;;19.00;2.13;;;;;;;20.92;38.25;100915.22;16121255;19;130968;-49
2023/04/10 20:16:17;;;;;;;19.73;2.40;;;;;;;20.89;38.77;100922.13;16120114;19;129715;-48
2023/04/10 20:21:39;;;;;;;31.52;3.05;;;;;;;20.87;38.95;100918.75;16123016;19;130169;-49
2023/04/10 20:27:01;;;;;;;27.23;3.15;;;;;;;20.84;38.93;100916.50;16122487;19;130185;-46
2023/04/10 20:32:23;;;;;;;19.98;2.47;;;;;;;20.81;39.34;100901.16;16112821;19;130230;-47
2023/04/10 20:37:45;;;;;;;22.70;2.28;;;;;;;20.76;39.51;100917.81;16085713;19;130279;-49
2023/04/10 20:43:10;;;;;;;16.02;1.98;;;;;;;20.73;39.79;100902.47;16088181;19;132172;-48
2023/04/10 20:48:33;;;;;;;19.43;2.17;;;;;;;20.71;39.73;100889.91;16112543;19;129550;-48
2023/04/10 20:53:55;;;;;;;22.80;2.20;;;;;;;20.69;40.05;100869.88;16112571;19;130553;-48
2023/04/10 20:59:17;;;;;;;25.63;2.50;;;;;;;20.68;39.47;100882.09;16110809;19;129474;-46
2023/04/10 21:04:39;;;;;;;18.80;2.00;;;;;;;20.66;39.18;100887.09;16114659;19;129375;-46
2023/04/10 21:10:00;;;;;;;21.38;2.58;;;;;;;20.62;39.43;100891.50;16121090;19;130419;-47
2023/04/10 21:15:23;;;;;;;14.18;2.05;;;;;;;20.57;39.26;100886.72;16115440;19;129435;-51
2023/04/10 21:20:44;;;;;;;14.55;2.25;;;;;;;20.53;39.51;100903.09;16113252;19;129432;-47
2023/04/10 21:26:06;;;;;;;19.40;2.67;;;;;;;20.44;39.53;100904.63;16117650;19;130131;-51
2023/04/10 21:31:28;;;;;;;21.48;2.80;;;;;;;20.37;39.39;100917.88;16106380;19;130675;-50
2023/04/10 21:36:50;;;;;;;22.60;2.28;;;;;;;20.28;39.03;100907.22;16103196;19;129603;-49
2023/04/10 21:42:12;;;;;;;22.05;2.38;;;;;;;20.23;38.93;100892.44;16110542;19;131024;-49
2023/04/10 21:47:34;;;;;;;15.40;1.90;;;;;;;20.18;39.06;100912.66;16108469;19;131274;-51
2023/04/10 21:52:56;;;;;;;18.10;2.80;;;;;;;20.14;38.69;100912.31;16115121;19;130522;-49
2023/04/10 21:58:18;;;;;;;20.83;2.83;;;;;;;20.13;38.91;100912.56;16118325;19;129385;-52
2023/04/10 22:03:40;;;;;;;13.23;1.83;;;;;;;20.08;38.63;100893.06;16112663;19;129822;-51
2023/04/10 22:09:02;;;;;;;13.68;1.70;;;;;;;20.08;38.87;100895.81;16113999;19;129829;-45
2023/04/10 22:14:24;;;;;;;7.03;1.75;;;;;;;20.03;38.62;100896.59;16115401;19;130665;-47
2023/04/10 22:19:46;;;;;;;11.48;1.80;;;;;;;19.99;38.60;100892.66;16113256;19;130801;-48
2023/04/10 22:25:08;;;;;;;8.95;1.95;;;;;;;19.95;38.55;100892.28;16112711;19;129842;-49
2023/04/10 22:30:30;;;;;;;9.68;1.60;;;;;;;19.93;38.71;100877.84;16111867;19;130038;-48
2023/04/10 22:35:52;;;;;;;10.15;1.55;;;;;;;19.89;38.24;100896.09;16112998;19;130406;-48
2023/04/10 22:41:14;;;;;;;8.52;1.88;;;;;;;19.87;38.24;100889.97;16110647;19;129148;-45
2023/04/10 22:46:36;;;;;;;9.60;1.73;;;;;;;19.84;38.21;100888.56;16111481;19;129764;-52
2023/04/10 22:51:58;;;;;;;6.30;1.30;;;;;;;19.82;38.45;100887.09;16111321;19;135523;-47
2023/04/10 22:57:20;;;;;;;5.57;1.27;;;;;;;19.79;38.46;100904.28;16121735;19;130288;-49
2023/04/10 23:02:42;;;;;;;5.30;1.33;;;;;;;19.78;38.09;100897.06;16125314;19;129383;-48
2023/04/10 23:08:04;;;;;;;6.00;1.48;;;;;;;19.74;38.50;100901.44;16126122;19;129606;-50
2023/04/10 23:13:26;;;;;;;7.63;1.45;;;;;;;19.70;38.14;100912.19;16126472;19;130425;-47
2023/04/10 23:18:49;;;;;;;5.47;1.65;;;;;;;19.67;38.01;100919.13;16124884;19;130329;-47
2023/04/10 23:24:11;;;;;;;6.93;1.20;;;;;;;19.64;38.46;100914.06;16127295;19;131375;-49
2023/04/10 23:29:33;;;;;;;6.88;1.17;;;;;;;19.62;38.40;100915.41;16126533;19;131217;-48
2023/04/10 23:34:55;;;;;;;6.72;1.48;;;;;;;19.59;38.11;100919.53;16124573;19;130552;-49
2023/04/10 23:40:18;;;;;;;4.85;1.20;;;;;;;19.58;38.34;100920.59;16125750;19;129597;-49
2023/04/10 23:45:40;;;;;;;3.42;1.10;;;;;;;19.53;38.28;100929.69;16123356;19;131704;-46
2023/04/10 23:51:04;;;;;;;5.68;1.15;;;;;;;19.51;38.08;100911.63;16125229;19;129757;-51
2023/04/10 23:56:28;;;;;;;5.45;1.45;;;;;;;19.48;38.06;100918.53;16123129;19;131661;-48
